首页
METAR-TAF:

METAR-TAF

机场 :

帕波, 匈牙利

纬度: 47-12N, 经度: 017-30E, 海拔: 145米

当前天气观测

该预报发布于31分钟前的21:15 UTC
风速2节,风向东北
温度 19°C
湿度 88%
气压 1021 hPa
能见度10公里或以上
1500米以下无云,无积雨云

METAR: LHPA 212115Z 04002KT CAVOK 19/17 Q1021 NOSIG RMK BLU

时间: 23:46 (21:46 UTC)

预报

该预报发布于4小时和31分钟前的17:15 UTC
预报有效从21日的 18点(UTC)到 22日的 18点(UTC)
风速10节,风向
能见度10公里或以上
1500米以下无云,无积雨云
成为
从 21日的 18点(UTC)到 21日的 20点(UTC)
风速3节,风向多变
成为
从 22日的 09点(UTC)到 22日的 11点(UTC)
风速8节,风向北转西北

TAF: LHPA 211715Z 2118/2218 01010KT CAVOK BECMG 2118/2120 VRB03KT BECMG 2209/2211 34008KT

超过4000个机场的气象观测和天气预报(METAR&TAF报告)。

可查询的气象台以黄色和红色小点在地图上表示。

将鼠标移到小点上方,可查看气象台名称。

然后点击查看天气观测和预报。

如需切换地图:点击带黑十字的绿色按钮放大地图;点击带横线的绿色按钮缩小地图;或者点击绿色箭头查看邻近地区的地图。


METAR-TAF: